Terminal Aerodrome Forecast
Issued by NWS

Home | Current Version | Previous Version | Text Only | Print | Product List | Glossary On
Versions: 1 2 3 4 5 6 7 8 9 10 11 12 13 14 15 16 17 18 19 20 21 22 23 24 25 26 27 28 29 30 31 32 33 34 35 36 37 38 39 40 41 42 43 44 45 46 47
000
FTUS45 KBOU 110824 AAA
TAFAPA
TAF AMD
KAPA 110824Z 1108/1206 36010KT P6SM SCT090 BKN120
     FM111600 34010KT P6SM SCT090 BKN200
     FM111800 05012KT P6SM SCT090 BKN200
     FM112100 07012KT P6SM VCTS SCT070CB BKN120
      TEMPO 1121/1201 VRB15G25KT -TSRA BKN070CB
     FM120100 34007KT P6SM SCT090 BKN140 PROB30 1201/1205 -SHRA
      BKN090=

USA.gov is the U.S. government's official web portal to all federal, state and local government web resources and services.